Burgemeesterswijk, Netherlands
Current Conditions -  °F | °C
As of 12:55 AM on Saturday 22 Nov 2014 (Local Time) from EHDL Reporting Station
Haze Haze  
Wind Chill: 34°   Ceiling: 12000
Heat Index: 39°   Visibility: 5mi
Dew Point: 37°   Wind: 8mph
Humidity: 93%   Direction: 100°E
Pressure: 30.09"   Gusts: NA
Location:  51.99°N, 5.9°E
Report Text: EHDL 212355Z AUTO 10007KT 8000 BR FEW092 OVC120 04/03 Q1019 BLU
Loading
Personal Weather Stations






























Interactive Weather Map New forecast layout! Learn more

10-Day Weather Forecast

Advertisements
Track Severe Weather on mobile